Terminal Aerodrome Forecast
Issued by NWS

Home | Current Version | Previous Version | Text Only | Print | Product List | Glossary On
Versions: 1 2 3 4 5 6 7 8 9 10 11 12 13 14 15 16 17 18 19 20 21
646
FTUS42 KFFC 310529
TAFRYY
TAF
KRYY 310529Z 3106/0106 00000KT P6SM FEW100 SCT250
      TEMPO 3111/3113 4SM BR
     FM311400 26005KT P6SM BKN035
     FM311800 23008KT P6SM BKN050 PROB30 3118/3124 5SM -TSRA
      OVC030CB
     FM010100 24004KT P6SM SCT080
      AMD NOT SKED TIL 311200=

USA.gov is the U.S. government's official web portal to all federal, state and local government web resources and services.